METAR Data
IDs: Format: Raw Decoded Include TAF

Data at: 0132 UTC 20 Jul 2019

METAR for:KDVN (Davenport Muni, IA, US)
Text:KDVN 200052Z AUTO 20012G21KT 10SM CLR 31/25 A2977 RMK AO2 SLP068 T03110250
Temperature: 31.1°C ( 88°F)
Dewpoint: 25.0°C ( 77°F) [RH = 70%]
Pressure (altimeter):29.77 inches Hg (1008.2 mb) [Sea level pressure: 1006.8 mb]
Winds:from the SSW (200 degrees) at 14 MPH (12 knots; 6.2 m/s) gusting to 24 MPH (21 knots; 10.8 m/s)
Visibility:10 or more sm (16+ km)
Ceiling:at least 12,000 feet AGL
Clouds:sky clear below 12,000 feet AGL
QC Flag:automated observation with no human augmentation